Terminal Aerodrome Forecast
Issued by NWS

Home | Current Version | Previous Version | Text Only | Print | Product List | Glossary On
Versions: 1 2 3 4 5 6 7 8 9 10 11 12 13 14 15 16
000
FTUS42 KMLB 201600 AAA
TAFFPR
TAF AMD
KFPR 201624Z 2016/2112 26009KT P6SM VCSH BKN030 OVC050
      TEMPO 2016/2017 1SM SHRA BKN015
     FM201800 26007KT P6SM VCSH SCT030 OVC050
      TEMPO 2018/2021 3SM SHRA BKN025
     FM210000 26003KT P6SM VCSH SCT020 BKN040=

USA.gov is the U.S. government's official web portal to all federal, state and local government web resources and services.